Time;durP1;ratioP1;P1;durP2;ratioP2;P2;SDS_P1;SDS_P2;PMS_P1;PMS_P2;Temp;Humidity;BMP_temperature;BMP_pressure;BME280_temperature;BME280_humidity;BME280_pressure;Samples;Min_cycle;Max_cycle;Signal;HPM_P1;HPM_P2
2022/03/17 00:00:25;;;;;;;5.00;4.60;;;;;;;;;;5096919;28;20602;-53
2022/03/17 00:02:52;;;;;;;5.38;4.97;;;;;;;;;;5096881;28;20286;-53
2022/03/17 00:05:20;;;;;;;4.97;4.57;;;;;;;;;;5097877;28;20298;-53
2022/03/17 00:07:48;;;;;;;4.82;4.43;;;;;;;;;;5096983;28;20203;-53
2022/03/17 00:10:16;;;;;;;5.25;4.85;;;;;;;;;;5096873;28;20294;-53
2022/03/17 00:12:46;;;;;;;4.47;4.18;;;;;;;;;;5097165;28;20318;-53
2022/03/17 00:15:17;;;;;;;4.55;4.25;;;;;;;;;;5097242;28;20196;-53
2022/03/17 00:17:46;;;;;;;4.63;4.22;;;;;;;;;;5096628;28;20298;-53
2022/03/17 00:20:14;;;;;;;5.82;4.50;;;;;;;;;;5096029;28;20199;-53
2022/03/17 00:22:41;;;;;;;5.10;4.60;;;;;;;;;;5096343;28;20294;-53
2022/03/17 00:25:09;;;;;;;4.50;4.10;;;;;;;;;;5096026;28;20563;-53
2022/03/17 00:27:37;;;;;;;4.43;4.10;;;;;;;;;;5096489;28;20302;-53
2022/03/17 00:30:04;;;;;;;5.55;4.50;;;;;;;;;;5095085;28;20548;-53
2022/03/17 00:32:34;;;;;;;4.78;4.38;;;;;;;;;;5096964;28;20286;-53
2022/03/17 00:37:48;;;;;;;4.60;4.13;;;;;;;;;;5096679;28;20522;-53
2022/03/17 00:40:15;;;;;;;5.40;4.18;;;;;;;;;;5095715;28;20595;-53
2022/03/17 00:42:42;;;;;;;4.70;4.30;;;;;;;;;;5096263;28;20513;-53
2022/03/17 00:45:10;;;;;;;5.80;4.00;;;;;;;;;;5095831;28;20212;-53
2022/03/17 00:47:40;;;;;;;4.43;4.03;;;;;;;;;;5096389;28;20330;-53
2022/03/17 00:50:08;;;;;;;4.32;3.92;;;;;;;;;;5096560;28;20526;-53
2022/03/17 00:52:35;;;;;;;4.15;3.75;;;;;;;;;;5096332;28;20233;-53
2022/03/17 00:55:04;;;;;;;3.97;3.55;;;;;;;;;;5096659;28;20214;-53
2022/03/17 00:57:32;;;;;;;4.00;3.70;;;;;;;;;;5096401;28;20259;-53
2022/03/17 01:00:00;;;;;;;4.13;3.67;;;;;;;;;;5095861;28;20192;-53
2022/03/17 01:02:27;;;;;;;4.18;3.78;;;;;;;;;;5096394;28;20661;-53
2022/03/17 01:04:56;;;;;;;4.10;3.80;;;;;;;;;;5096446;28;20204;-53
2022/03/17 01:07:24;;;;;;;4.22;3.83;;;;;;;;;;5096181;28;20298;-53
2022/03/17 01:09:51;;;;;;;3.92;3.55;;;;;;;;;;5096156;28;20207;-53
2022/03/17 01:12:19;;;;;;;3.47;3.20;;;;;;;;;;5096547;28;20294;-53
2022/03/17 01:14:47;;;;;;;3.90;3.60;;;;;;;;;;5096456;28;20231;-53
2022/03/17 01:17:14;;;;;;;3.90;3.60;;;;;;;;;;5096124;28;20634;-53
2022/03/17 01:19:42;;;;;;;7.85;6.90;;;;;;;;;;5096191;28;20290;-53
2022/03/17 01:22:11;;;;;;;6.32;5.55;;;;;;;;;;5096787;28;20302;-53
2022/03/17 01:24:38;;;;;;;5.50;5.00;;;;;;;;;;5095489;28;20246;-53
2022/03/17 01:27:06;;;;;;;5.22;4.72;;;;;;;;;;5095560;28;20203;-53
2022/03/17 01:29:33;;;;;;;5.70;5.20;;;;;;;;;;5094568;28;20203;-53
2022/03/17 01:32:01;;;;;;;5.45;4.88;;;;;;;;;;5095516;28;20217;-53
2022/03/17 01:34:28;;;;;;;5.28;4.78;;;;;;;;;;5095629;28;20266;-53
2022/03/17 01:36:56;;;;;;;5.10;4.60;;;;;;;;;;5094982;28;20203;-53
2022/03/17 01:39:25;;;;;;;5.25;4.75;;;;;;;;;;5094753;28;20282;-53
2022/03/17 01:41:52;;;;;;;4.57;4.15;;;;;;;;;;5095524;28;20231;-53
2022/03/17 01:44:20;;;;;;;5.32;4.82;;;;;;;;;;5095421;28;20282;-53
2022/03/17 01:49:32;;;;;;;4.93;4.53;;;;;;;;;;5099054;28;20215;-53
2022/03/17 01:52:00;;;;;;;5.07;4.68;;;;;;;;;;5099501;28;20213;-53
2022/03/17 01:54:29;;;;;;;5.43;4.70;;;;;;;;;;5099498;28;20484;-53
2022/03/17 01:56:58;;;;;;;4.97;4.57;;;;;;;;;;5099190;28;20294;-53
2022/03/17 01:59:26;;;;;;;5.32;4.82;;;;;;;;;;5098727;28;20488;-53
2022/03/17 02:01:55;;;;;;;4.68;4.28;;;;;;;;;;5098859;28;20200;-53
2022/03/17 02:04:23;;;;;;;5.10;4.60;;;;;;;;;;5099445;28;20199;-53
2022/03/17 02:06:50;;;;;;;4.82;4.43;;;;;;;;;;5099000;28;20204;-53
2022/03/17 02:09:18;;;;;;;5.00;4.50;;;;;;;;;;5098862;28;20235;-53
2022/03/17 02:14:34;;;;;;;4.68;4.30;;;;;;;;;;5098365;28;20230;-53
2022/03/17 02:17:01;;;;;;;4.65;4.30;;;;;;;;;;5098583;28;20211;-53
2022/03/17 02:19:29;;;;;;;4.25;3.95;;;;;;;;;;5098485;28;20203;-53
2022/03/17 02:21:56;;;;;;;4.60;4.22;;;;;;;;;;5098720;28;20298;-53
2022/03/17 02:27:11;;;;;;;4.50;4.10;;;;;;;;;;5098609;28;20190;-53
2022/03/17 02:29:38;;;;;;;4.40;4.10;;;;;;;;;;5097979;28;20244;-53
2022/03/17 02:32:09;;;;;;;4.25;3.95;;;;;;;;;;5098307;28;20299;-53
2022/03/17 02:34:38;;;;;;;4.40;4.07;;;;;;;;;;5098431;28;20634;-53
2022/03/17 02:37:06;;;;;;;4.82;4.43;;;;;;;;;;5098931;28;20217;-53
2022/03/17 02:39:35;;;;;;;4.25;3.85;;;;;;;;;;5098800;28;20204;-53
2022/03/17 02:42:02;;;;;;;4.78;4.38;;;;;;;;;;5098374;28;20203;-53
2022/03/17 02:44:29;;;;;;;4.38;4.03;;;;;;;;;;5098296;28;20569;-53
2022/03/17 02:46:57;;;;;;;4.38;3.97;;;;;;;;;;5098141;28;20323;-53
2022/03/17 02:49:26;;;;;;;4.00;3.70;;;;;;;;;;5098536;28;20713;-53
2022/03/17 02:51:55;;;;;;;4.30;4.00;;;;;;;;;;5098867;28;20298;-53
2022/03/17 02:54:22;;;;;;;4.50;4.10;;;;;;;;;;5098793;28;20570;-53
2022/03/17 02:56:51;;;;;;;4.00;3.70;;;;;;;;;;5098304;28;20286;-53
2022/03/17 02:59:18;;;;;;;4.47;4.10;;;;;;;;;;5098209;28;20200;-53
2022/03/17 03:01:46;;;;;;;4.05;3.75;;;;;;;;;;5099072;28;20238;-53
2022/03/17 03:04:16;;;;;;;4.57;4.18;;;;;;;;;;5098741;28;20480;-53
2022/03/17 03:06:46;;;;;;;4.13;3.80;;;;;;;;;;5098524;28;20202;-53
2022/03/17 03:09:14;;;;;;;4.30;3.90;;;;;;;;;;5098527;28;20517;-53
2022/03/17 03:11:41;;;;;;;3.85;3.55;;;;;;;;;;5098787;28;20214;-53
2022/03/17 03:14:10;;;;;;;4.20;3.90;;;;;;;;;;5098214;28;20318;-53
2022/03/17 03:16:38;;;;;;;4.63;4.22;;;;;;;;;;5097445;28;20200;-53
2022/03/17 03:19:05;;;;;;;4.38;4.07;;;;;;;;;;5098035;28;20711;-53
2022/03/17 03:21:33;;;;;;;4.40;4.00;;;;;;;;;;5098598;28;20218;-53
2022/03/17 03:24:00;;;;;;;4.85;4.45;;;;;;;;;;5098603;28;20488;-53
2022/03/17 03:26:28;;;;;;;4.30;4.00;;;;;;;;;;5098046;28;20204;-53
2022/03/17 03:28:55;;;;;;;4.25;3.95;;;;;;;;;;5098369;28;20195;-53
2022/03/17 03:31:24;;;;;;;4.25;3.90;;;;;;;;;;5098803;28;20485;-53
2022/03/17 03:33:52;;;;;;;4.22;3.90;;;;;;;;;;5097879;28;20314;-53
2022/03/17 03:39:04;;;;;;;3.80;3.50;;;;;;;;;;5098098;28;20574;-53
2022/03/17 03:41:35;;;;;;;4.07;3.78;;;;;;;;;;5098116;28;20220;-53
2022/03/17 03:44:03;;;;;;;4.30;4.00;;;;;;;;;;5098202;28;20199;-53
2022/03/17 03:46:31;;;;;;;4.38;3.97;;;;;;;;;;5097544;28;20307;-53
2022/03/17 03:48:59;;;;;;;4.32;4.03;;;;;;;;;;5097208;28;20563;-53
2022/03/17 03:51:26;;;;;;;4.57;4.20;;;;;;;;;;5096476;28;20444;-53
2022/03/17 03:56:39;;;;;;;4.25;3.95;;;;;;;;;;5097376;28;20272;-53
2022/03/17 03:59:07;;;;;;;4.65;4.30;;;;;;;;;;5097093;28;20303;-53
2022/03/17 04:01:36;;;;;;;4.70;4.30;;;;;;;;;;5096584;28;20211;-53
2022/03/17 04:04:03;;;;;;;4.70;4.30;;;;;;;;;;5097495;28;20210;-53
2022/03/17 04:06:31;;;;;;;4.60;4.20;;;;;;;;;;5097760;28;20394;-53
2022/03/17 04:08:59;;;;;;;5.18;4.78;;;;;;;;;;5097164;28;20295;-53
2022/03/17 04:11:26;;;;;;;4.68;4.30;;;;;;;;;;5097166;28;20214;-53
2022/03/17 04:13:54;;;;;;;4.95;4.55;;;;;;;;;;5096938;28;20326;-53
2022/03/17 04:16:21;;;;;;;5.20;4.78;;;;;;;;;;5097000;28;20639;-53
2022/03/17 04:18:50;;;;;;;5.68;5.18;;;;;;;;;;5097288;28;20265;-53
2022/03/17 04:21:20;;;;;;;5.15;4.75;;;;;;;;;;5097437;28;20665;-53
2022/03/17 04:23:48;;;;;;;5.10;4.70;;;;;;;;;;5096610;28;20298;-53
2022/03/17 04:26:15;;;;;;;5.45;5.05;;;;;;;;;;5096495;28;20311;-53
2022/03/17 04:28:42;;;;;;;5.60;5.10;;;;;;;;;;5096559;28;20310;-53
2022/03/17 04:31:11;;;;;;;5.13;4.72;;;;;;;;;;5096850;28;20626;-53
2022/03/17 04:33:38;;;;;;;5.88;5.38;;;;;;;;;;5097122;28;20210;-53
2022/03/17 04:36:10;;;;;;;5.45;5.05;;;;;;;;;;5097329;28;20523;-53
2022/03/17 04:38:38;;;;;;;5.70;5.20;;;;;;;;;;5076300;28;20204;-53
2022/03/17 04:41:06;;;;;;;5.85;5.35;;;;;;;;;;5076482;28;20208;-53
2022/03/17 04:43:33;;;;;;;5.80;5.30;;;;;;;;;;5076204;28;20494;-53
2022/03/17 04:46:01;;;;;;;6.15;5.65;;;;;;;;;;5076188;28;20236;-53
2022/03/17 04:48:28;;;;;;;5.82;5.35;;;;;;;;;;5075824;28;20678;-53
2022/03/17 04:50:56;;;;;;;6.25;5.65;;;;;;;;;;5076132;28;20295;-53
2022/03/17 04:53:29;;;;;;;6.10;5.60;;;;;;;;;;5075329;28;20211;-53
2022/03/17 04:55:57;;;;;;;6.05;5.57;;;;;;;;;;5075608;28;20315;-53
2022/03/17 04:58:25;;;;;;;6.35;5.85;;;;;;;;;;5076223;28;20205;-53
2022/03/17 05:00:53;;;;;;;6.05;5.55;;;;;;;;;;5090692;28;20294;-53
2022/03/17 05:03:21;;;;;;;6.22;5.72;;;;;;;;;;5095544;28;20204;-53
2022/03/17 05:05:48;;;;;;;6.63;6.03;;;;;;;;;;5095601;28;20302;-53
2022/03/17 05:08:16;;;;;;;6.82;6.30;;;;;;;;;;5095112;28;20214;-53
2022/03/17 05:10:47;;;;;;;6.90;6.30;;;;;;;;;;5095554;28;20494;-53
2022/03/17 05:13:15;;;;;;;6.60;6.10;;;;;;;;;;5095394;28;20211;-53
2022/03/17 05:15:42;;;;;;;6.80;6.20;;;;;;;;;;5095507;28;20223;-53
2022/03/17 05:18:10;;;;;;;6.60;6.00;;;;;;;;;;5095507;28;20234;-53
2022/03/17 05:20:38;;;;;;;6.85;6.30;;;;;;;;;;5094875;28;20213;-53
2022/03/17 05:23:06;;;;;;;6.38;5.88;;;;;;;;;;5095064;28;20298;-53
2022/03/17 05:25:33;;;;;;;7.00;6.32;;;;;;;;;;5095203;28;20742;-53
2022/03/17 05:28:02;;;;;;;6.60;6.10;;;;;;;;;;5095616;28;20534;-53
2022/03/17 05:30:34;;;;;;;6.70;6.20;;;;;;;;;;5095863;28;20306;-53
2022/03/17 05:33:02;;;;;;;7.30;6.70;;;;;;;;;;5095793;28;20200;-53
2022/03/17 05:35:29;;;;;;;6.95;6.45;;;;;;;;;;5095872;28;20432;-53
2022/03/17 05:37:57;;;;;;;6.75;6.25;;;;;;;;;;5095826;28;20593;-53
2022/03/17 05:40:25;;;;;;;7.28;6.72;;;;;;;;;;5096008;28;20195;-53
2022/03/17 05:42:54;;;;;;;6.90;6.30;;;;;;;;;;5095614;28;20204;-53
2022/03/17 05:45:25;;;;;;;7.10;6.50;;;;;;;;;;5094922;28;20199;-51
2022/03/17 05:47:53;;;;;;;6.90;6.30;;;;;;;;;;5095395;28;20199;-51
2022/03/17 05:50:22;;;;;;;7.00;6.40;;;;;;;;;;5094831;28;20196;-53
2022/03/17 05:52:50;;;;;;;6.88;6.28;;;;;;;;;;5095402;28;20571;-53
2022/03/17 05:55:18;;;;;;;7.22;6.70;;;;;;;;;;5093740;28;20229;-53
2022/03/17 05:57:46;;;;;;;7.35;6.72;;;;;;;;;;5093847;28;20199;-53
2022/03/17 06:00:15;;;;;;;6.82;6.30;;;;;;;;;;5094560;28;20603;-53
2022/03/17 06:02:44;;;;;;;7.65;7.05;;;;;;;;;;5094911;28;20294;-53
2022/03/17 06:05:12;;;;;;;7.30;6.60;;;;;;;;;;5093964;28;20282;-53
2022/03/17 06:07:39;;;;;;;7.45;6.85;;;;;;;;;;5094201;28;20786;-53
2022/03/17 06:10:08;;;;;;;7.32;6.72;;;;;;;;;;5094026;28;20203;-53
2022/03/17 06:12:35;;;;;;;7.50;6.90;;;;;;;;;;5094790;28;20230;-53
2022/03/17 06:15:03;;;;;;;7.50;6.90;;;;;;;;;;5093802;28;20228;-53
2022/03/17 06:17:40;;;;;;;7.35;6.75;;;;;;;;;;5093460;28;20286;-53
2022/03/17 06:20:10;;;;;;;7.40;6.80;;;;;;;;;;5092234;28;20582;-53
2022/03/17 06:22:41;;;;;;;8.20;7.53;;;;;;;;;;5090067;28;20200;-53
2022/03/17 06:25:10;;;;;;;7.32;6.72;;;;;;;;;;5093972;28;20501;-53
2022/03/17 06:27:37;;;;;;;7.43;6.82;;;;;;;;;;5092490;28;20199;-53
2022/03/17 06:30:06;;;;;;;7.57;6.93;;;;;;;;;;5091657;28;20530;-53
2022/03/17 06:32:33;;;;;;;8.38;7.68;;;;;;;;;;5092469;28;20207;-53
2022/03/17 06:35:00;;;;;;;8.25;7.55;;;;;;;;;;5095266;28;20234;-53
2022/03/17 06:37:30;;;;;;;7.75;7.15;;;;;;;;;;5095750;28;20206;-53
2022/03/17 06:39:57;;;;;;;7.47;6.88;;;;;;;;;;5095152;28;20203;-53
2022/03/17 06:42:24;;;;;;;8.23;7.53;;;;;;;;;;5095106;28;20207;-53
2022/03/17 06:44:52;;;;;;;7.82;7.20;;;;;;;;;;5094870;28;20194;-53
2022/03/17 06:47:19;;;;;;;8.93;8.23;;;;;;;;;;5094832;28;20314;-53
2022/03/17 06:49:47;;;;;;;8.48;7.78;;;;;;;;;;5095249;28;20207;-53
2022/03/17 06:52:14;;;;;;;8.07;7.38;;;;;;;;;;5094711;28;20342;-53
2022/03/17 06:54:43;;;;;;;8.18;7.47;;;;;;;;;;5095102;28;20227;-53
2022/03/17 06:57:11;;;;;;;7.75;7.05;;;;;;;;;;5094990;28;20195;-53
2022/03/17 06:59:38;;;;;;;8.73;7.97;;;;;;;;;;5094362;28;20196;-53
2022/03/17 07:02:05;;;;;;;8.40;7.70;;;;;;;;;;5094871;28;20286;-53
2022/03/17 07:04:33;;;;;;;8.27;7.57;;;;;;;;;;5093095;28;20225;-53
2022/03/17 07:07:00;;;;;;;8.52;7.82;;;;;;;;;;5093102;28;20199;-53
2022/03/17 07:09:28;;;;;;;8.57;7.88;;;;;;;;;;5094262;28;20196;-53
2022/03/17 07:11:57;;;;;;;8.38;7.68;;;;;;;;;;5093879;28;20230;-53
2022/03/17 07:14:24;;;;;;;8.23;7.53;;;;;;;;;;5093654;28;20213;-53
2022/03/17 07:16:52;;;;;;;8.73;8.02;;;;;;;;;;5094572;28;20204;-53
2022/03/17 07:19:20;;;;;;;8.30;7.60;;;;;;;;;;5093577;28;20196;-53
2022/03/17 07:21:47;;;;;;;9.35;8.55;;;;;;;;;;5094392;28;20204;-53
2022/03/17 07:24:17;;;;;;;8.40;7.70;;;;;;;;;;5088195;28;20193;-53
2022/03/17 07:26:45;;;;;;;8.60;7.90;;;;;;;;;;5076905;28;20207;-53
2022/03/17 07:29:13;;;;;;;8.75;8.05;;;;;;;;;;5076304;28;20549;-53
2022/03/17 07:31:41;;;;;;;10.05;8.23;;;;;;;;;;5074433;28;20303;-53
2022/03/17 07:34:08;;;;;;;8.38;7.68;;;;;;;;;;5074092;28;20307;-53
2022/03/17 07:36:36;;;;;;;8.77;7.97;;;;;;;;;;5074316;28;20246;-53
2022/03/17 07:39:03;;;;;;;9.02;8.32;;;;;;;;;;5077005;28;20188;-53
2022/03/17 07:41:31;;;;;;;9.25;8.45;;;;;;;;;;5093991;28;20295;-53
2022/03/17 07:44:00;;;;;;;8.60;7.80;;;;;;;;;;5093290;28;20506;-53
2022/03/17 07:46:30;;;;;;;9.45;8.65;;;;;;;;;;5091720;28;20239;-53
2022/03/17 07:48:57;;;;;;;9.00;8.20;;;;;;;;;;5092971;28;20204;-53
2022/03/17 07:51:24;;;;;;;9.45;8.65;;;;;;;;;;5094826;28;20294;-53
2022/03/17 07:53:52;;;;;;;9.73;8.93;;;;;;;;;;5094968;28;20203;-53
2022/03/17 07:56:21;;;;;;;9.80;9.00;;;;;;;;;;5077468;28;20315;-53
2022/03/17 07:58:48;;;;;;;10.23;9.25;;;;;;;;;;5075320;28;20590;-53
2022/03/17 08:01:17;;;;;;;9.00;8.10;;;;;;;;;;5074891;28;20303;-53
2022/03/17 08:03:46;;;;;;;9.35;8.40;;;;;;;;;;5085645;28;20302;-53
2022/03/17 08:06:13;;;;;;;9.68;8.77;;;;;;;;;;5087650;28;20200;-53
2022/03/17 08:08:41;;;;;;;9.52;8.63;;;;;;;;;;5089195;28;20207;-53
2022/03/17 08:11:09;;;;;;;10.45;8.68;;;;;;;;;;5094229;28;20235;-53
2022/03/17 08:13:37;;;;;;;8.95;8.15;;;;;;;;;;5094826;28;20587;-53
2022/03/17 08:16:06;;;;;;;9.20;8.27;;;;;;;;;;5092438;28;20232;-53
2022/03/17 08:18:34;;;;;;;9.38;8.57;;;;;;;;;;5088279;28;20200;-53
2022/03/17 08:21:03;;;;;;;16.20;8.98;;;;;;;;;;5087950;28;20584;-53
2022/03/17 08:23:30;;;;;;;12.23;9.15;;;;;;;;;;5088933;28;20575;-53
2022/03/17 08:25:58;;;;;;;9.57;8.68;;;;;;;;;;5085217;28;20196;-53
2022/03/17 08:28:25;;;;;;;10.13;8.25;;;;;;;;;;5083829;28;20193;-53
2022/03/17 08:30:53;;;;;;;9.52;8.63;;;;;;;;;;5086112;28;20235;-53
2022/03/17 08:33:20;;;;;;;9.95;9.05;;;;;;;;;;5085051;28;20291;-53
2022/03/17 08:35:48;;;;;;;9.18;8.38;;;;;;;;;;5082467;28;20235;-53
2022/03/17 08:38:17;;;;;;;10.23;8.85;;;;;;;;;;5092603;28;20213;-53
2022/03/17 08:40:45;;;;;;;9.38;8.43;;;;;;;;;;5090172;28;20286;-53
2022/03/17 08:43:12;;;;;;;9.30;8.45;;;;;;;;;;5074842;28;20215;-54
2022/03/17 08:51:12;;;;;;;9.45;8.40;;;;;;;;;;5072327;28;20203;-53
2022/03/17 08:53:41;;;;;;;9.90;9.10;;;;;;;;;;5072426;28;20204;-53
2022/03/17 08:56:09;;;;;;;9.57;8.68;;;;;;;;;;5082962;28;20645;-53
2022/03/17 08:58:38;;;;;;;10.20;9.07;;;;;;;;;;5085990;28;20196;-53
2022/03/17 09:01:05;;;;;;;9.75;8.85;;;;;;;;;;5094173;28;20249;-53
2022/03/17 09:03:33;;;;;;;11.10;9.98;;;;;;;;;;5093714;28;20290;-53
2022/03/17 09:06:01;;;;;;;9.60;8.57;;;;;;;;;;5094697;28;20192;-53
2022/03/17 09:08:29;;;;;;;9.35;8.50;;;;;;;;;;5094714;28;20237;-53
2022/03/17 09:10:58;;;;;;;10.02;9.07;;;;;;;;;;5085154;28;20291;-53
2022/03/17 09:13:26;;;;;;;10.15;9.10;;;;;;;;;;5074271;28;20204;-53
2022/03/17 09:15:54;;;;;;;9.50;8.60;;;;;;;;;;5074417;28;20236;-53
2022/03/17 09:18:22;;;;;;;9.77;8.73;;;;;;;;;;5073553;28;20231;-53
2022/03/17 09:20:50;;;;;;;10.07;8.70;;;;;;;;;;5073372;28;20204;-53
2022/03/17 09:23:17;;;;;;;10.25;9.25;;;;;;;;;;5074680;28;20444;-53
2022/03/17 09:25:45;;;;;;;9.48;8.65;;;;;;;;;;5091219;28;20257;-53
2022/03/17 09:28:14;;;;;;;9.95;8.95;;;;;;;;;;5092979;28;20203;-53
2022/03/17 09:30:44;;;;;;;9.63;8.75;;;;;;;;;;5090130;28;20234;-53
2022/03/17 09:33:12;;;;;;;9.75;8.85;;;;;;;;;;5092086;28;20239;-53
2022/03/17 09:35:39;;;;;;;10.13;9.23;;;;;;;;;;5092169;28;20230;-53
2022/03/17 09:38:07;;;;;;;9.85;8.90;;;;;;;;;;5092645;28;20203;-53
2022/03/17 09:40:38;;;;;;;10.25;9.25;;;;;;;;;;5091199;28;20199;-54
2022/03/17 09:43:28;;;;;;;9.90;9.10;;;;;;;;;;5094324;28;20203;-54
2022/03/17 09:45:58;;;;;;;10.10;9.20;;;;;;;;;;5093504;28;20523;-53
2022/03/17 09:48:27;;;;;;;9.82;8.93;;;;;;;;;;5091736;28;20361;-53
2022/03/17 09:50:57;;;;;;;9.45;8.65;;;;;;;;;;5091307;28;20311;-53
2022/03/17 09:53:24;;;;;;;10.55;9.65;;;;;;;;;;5090179;28;20203;-53
2022/03/17 09:55:52;;;;;;;9.95;8.90;;;;;;;;;;5092625;28;20318;-53
2022/03/17 09:58:19;;;;;;;10.00;9.05;;;;;;;;;;5093721;28;20759;-53
2022/03/17 10:00:52;;;;;;;10.35;9.45;;;;;;;;;;5094017;28;20200;-53
2022/03/17 10:03:25;;;;;;;10.25;9.27;;;;;;;;;;5093829;28;20204;-53
2022/03/17 10:05:52;;;;;;;9.75;8.85;;;;;;;;;;5084591;28;20199;-53
2022/03/17 10:08:21;;;;;;;10.23;9.32;;;;;;;;;;5095296;28;20199;-53
2022/03/17 10:10:49;;;;;;;10.15;9.15;;;;;;;;;;5097578;28;20306;-53
2022/03/17 10:13:17;;;;;;;9.80;8.93;;;;;;;;;;5095383;28;20211;-53
2022/03/17 10:15:46;;;;;;;10.77;9.75;;;;;;;;;;5095794;28;20231;-53
2022/03/17 10:18:19;;;;;;;10.60;9.60;;;;;;;;;;5092498;28;20482;-53
2022/03/17 10:20:49;;;;;;;10.00;9.10;;;;;;;;;;5097321;28;20204;-53
2022/03/17 10:23:25;;;;;;;11.18;10.13;;;;;;;;;;5096885;28;20539;-53
2022/03/17 10:25:57;;;;;;;10.20;9.35;;;;;;;;;;5095003;28;20207;-53
2022/03/17 10:28:26;;;;;;;9.60;8.80;;;;;;;;;;5095454;28;20214;-54
2022/03/17 10:31:03;;;;;;;10.27;9.38;;;;;;;;;;5095032;28;20199;-54
2022/03/17 10:33:31;;;;;;;10.00;9.10;;;;;;;;;;5095026;28;20218;-53
2022/03/17 10:36:13;;;;;;;9.63;8.63;;;;;;;;;;5094445;28;20224;-53
2022/03/17 10:38:42;;;;;;;11.82;9.20;;;;;;;;;;5095564;28;20212;-53
2022/03/17 10:41:12;;;;;;;10.05;9.05;;;;;;;;;;5094745;28;20214;-53
2022/03/17 10:43:41;;;;;;;10.48;9.38;;;;;;;;;;5092505;28;20279;-53
2022/03/17 10:46:09;;;;;;;10.50;8.45;;;;;;;;;;5084867;28;20490;-53
2022/03/17 10:48:36;;;;;;;10.27;9.27;;;;;;;;;;5083441;28;20579;-53
2022/03/17 10:51:05;;;;;;;9.63;8.70;;;;;;;;;;5088127;28;20204;-53
2022/03/17 10:53:34;;;;;;;10.25;9.20;;;;;;;;;;5095483;28;20203;-53
2022/03/17 10:56:11;;;;;;;9.88;8.63;;;;;;;;;;5095994;28;20231;-53
2022/03/17 10:58:42;;;;;;;10.75;8.95;;;;;;;;;;5094497;28;20377;-53
2022/03/17 11:01:09;;;;;;;9.48;8.57;;;;;;;;;;5094797;28;20204;-53
2022/03/17 11:03:38;;;;;;;9.40;8.50;;;;;;;;;;5093632;28;20302;-53
2022/03/17 11:06:08;;;;;;;11.00;8.63;;;;;;;;;;5094232;28;20196;-53
2022/03/17 11:08:35;;;;;;;9.80;8.90;;;;;;;;;;5092645;28;20586;-53
2022/03/17 11:11:03;;;;;;;10.35;9.35;;;;;;;;;;5094091;28;20203;-53
2022/03/17 11:13:31;;;;;;;9.65;8.75;;;;;;;;;;5093124;28;20206;-53
2022/03/17 11:16:00;;;;;;;10.75;9.68;;;;;;;;;;5093828;28;20203;-53
2022/03/17 11:18:28;;;;;;;9.85;8.95;;;;;;;;;;5092130;28;20234;-53
2022/03/17 11:21:10;;;;;;;9.60;8.80;;;;;;;;;;5094426;28;20210;-53
2022/03/17 11:23:55;;;;;;;10.05;9.20;;;;;;;;;;5096418;28;20239;-53
2022/03/17 11:26:23;;;;;;;9.50;8.60;;;;;;;;;;5094359;28;20196;-53
2022/03/17 11:28:52;;;;;;;9.63;8.73;;;;;;;;;;5092846;28;20287;-53
2022/03/17 11:31:21;;;;;;;10.00;9.00;;;;;;;;;;5091073;28;20238;-53
2022/03/17 11:33:48;;;;;;;9.68;8.77;;;;;;;;;;5093301;28;20200;-53
2022/03/17 11:36:21;;;;;;;9.80;8.90;;;;;;;;;;5091248;28;20331;-53
2022/03/17 11:38:56;;;;;;;9.90;9.05;;;;;;;;;;5090893;28;20192;-53
2022/03/17 11:41:24;;;;;;;10.10;9.23;;;;;;;;;;5091452;28;20265;-53
2022/03/17 11:44:03;;;;;;;8.82;8.13;;;;;;;;;;5090914;28;20606;-53
2022/03/17 11:46:37;;;;;;;8.65;7.95;;;;;;;;;;5090404;28;20520;-53
2022/03/17 11:49:18;;;;;;;12.18;11.07;;;;;;;;;;5090594;28;20199;-53
2022/03/17 11:51:53;;;;;;;14.07;12.70;;;;;;;;;;5092049;28;20204;-53
2022/03/17 11:54:22;;;;;;;13.18;12.02;;;;;;;;;;5091128;28;20295;-53
2022/03/17 11:56:53;;;;;;;13.13;11.93;;;;;;;;;;5091495;28;20242;-53
2022/03/17 11:59:23;;;;;;;12.98;11.82;;;;;;;;;;5090544;28;20528;-53
2022/03/17 12:01:51;;;;;;;14.20;12.23;;;;;;;;;;5090881;28;20199;-53
2022/03/17 12:04:24;;;;;;;14.27;12.98;;;;;;;;;;5091784;28;20195;-53
2022/03/17 12:06:55;;;;;;;13.98;12.68;;;;;;;;;;5090554;28;20200;-53
2022/03/17 12:09:35;;;;;;;13.70;12.40;;;;;;;;;;5090996;28;20207;-53
2022/03/17 12:12:02;;;;;;;14.63;13.32;;;;;;;;;;5093093;28;20633;-53
2022/03/17 12:14:30;;;;;;;16.23;14.73;;;;;;;;;;5092075;28;20274;-53
2022/03/17 12:16:58;;;;;;;16.80;15.30;;;;;;;;;;5090362;28;20273;-53
2022/03/17 12:19:30;;;;;;;16.45;14.82;;;;;;;;;;5089917;28;20199;-53
2022/03/17 12:22:07;;;;;;;16.50;14.88;;;;;;;;;;5090046;28;20579;-53
2022/03/17 12:24:38;;;;;;;15.23;13.73;;;;;;;;;;5090365;28;20269;-53
2022/03/17 12:27:06;;;;;;;16.38;14.77;;;;;;;;;;5090049;28;20291;-53
2022/03/17 12:29:34;;;;;;;15.60;14.02;;;;;;;;;;5091957;28;20284;-53
2022/03/17 12:32:05;;;;;;;14.85;13.45;;;;;;;;;;5090522;28;20200;-53
2022/03/17 12:34:34;;;;;;;15.63;14.15;;;;;;;;;;5090100;28;20314;-53
2022/03/17 12:37:02;;;;;;;15.27;13.88;;;;;;;;;;5089743;28;20254;-53
2022/03/17 12:39:30;;;;;;;14.50;13.10;;;;;;;;;;5089491;28;20215;-53
2022/03/17 12:41:59;;;;;;;15.05;13.73;;;;;;;;;;5089925;28;20302;-53
2022/03/17 12:44:27;;;;;;;14.75;13.35;;;;;;;;;;5089725;28;20207;-53
2022/03/17 12:46:55;;;;;;;14.52;13.23;;;;;;;;;;5088945;28;20400;-53
2022/03/17 12:49:23;;;;;;;14.85;13.45;;;;;;;;;;5091177;28;20206;-53
2022/03/17 12:51:50;;;;;;;14.98;13.57;;;;;;;;;;5090115;28;20302;-53
2022/03/17 12:54:18;;;;;;;13.52;12.32;;;;;;;;;;5090582;28;20204;-53
2022/03/17 12:56:50;;;;;;;14.15;12.75;;;;;;;;;;5089847;28;20239;-53
2022/03/17 12:59:20;;;;;;;13.63;12.32;;;;;;;;;;5091021;28;20306;-53
2022/03/17 13:01:49;;;;;;;13.48;12.27;;;;;;;;;;5089183;28;20203;-53
2022/03/17 13:04:16;;;;;;;13.25;12.05;;;;;;;;;;5088251;28;20203;-53
2022/03/17 13:06:54;;;;;;;14.43;13.10;;;;;;;;;;5090392;28;20199;-53
2022/03/17 13:09:27;;;;;;;13.10;11.90;;;;;;;;;;5091051;28;20238;-53
2022/03/17 13:14:48;;;;;;;13.68;12.48;;;;;;;;;;5089056;28;20190;-53
2022/03/17 13:17:16;;;;;;;12.50;11.40;;;;;;;;;;5090309;28;20247;-53
2022/03/17 13:19:49;;;;;;;12.55;11.45;;;;;;;;;;5090779;28;20226;-53
2022/03/17 13:22:23;;;;;;;12.77;11.65;;;;;;;;;;5090261;28;20265;-53
2022/03/17 13:25:00;;;;;;;12.25;11.15;;;;;;;;;;5088650;28;20194;-53
2022/03/17 13:27:28;;;;;;;12.27;11.18;;;;;;;;;;5088809;28;20243;-53
2022/03/17 13:29:58;;;;;;;11.90;10.90;;;;;;;;;;5087750;28;20203;-53
2022/03/17 13:32:26;;;;;;;12.57;11.48;;;;;;;;;;5088484;28;20211;-53
2022/03/17 13:35:00;;;;;;;12.68;11.48;;;;;;;;;;5089854;28;20196;-53
2022/03/17 13:37:37;;;;;;;12.32;11.20;;;;;;;;;;5088553;28;20249;-53
2022/03/17 13:40:06;;;;;;;12.27;11.18;;;;;;;;;;5089723;28;20208;-53
2022/03/17 13:42:33;;;;;;;12.02;10.93;;;;;;;;;;5091573;28;20568;-53
2022/03/17 13:45:02;;;;;;;11.80;10.80;;;;;;;;;;5093218;28;20217;-53
2022/03/17 13:47:33;;;;;;;11.52;10.43;;;;;;;;;;5091288;28;20235;-53
2022/03/17 13:50:17;;;;;;;11.90;10.80;;;;;;;;;;5092727;28;20230;-53
2022/03/17 13:52:46;;;;;;;10.65;9.73;;;;;;;;;;5091369;28;20229;-53
2022/03/17 13:55:14;;;;;;;11.43;10.52;;;;;;;;;;5092420;28;20313;-53
2022/03/17 13:57:43;;;;;;;11.50;10.50;;;;;;;;;;5092815;28;20762;-53
2022/03/17 14:00:20;;;;;;;12.07;10.98;;;;;;;;;;5094035;28;20206;-53
2022/03/17 14:02:48;;;;;;;11.38;10.38;;;;;;;;;;5093256;28;20227;-53
2022/03/17 14:05:16;;;;;;;10.77;9.88;;;;;;;;;;5092176;28;20308;-53
2022/03/17 14:07:44;;;;;;;11.13;10.20;;;;;;;;;;5091695;28;20303;-53
2022/03/17 14:10:12;;;;;;;10.43;9.52;;;;;;;;;;5092027;28;20620;-53
2022/03/17 14:12:39;;;;;;;10.63;9.73;;;;;;;;;;5092517;28;20294;-53
2022/03/17 14:15:07;;;;;;;10.20;9.30;;;;;;;;;;5092583;28;20210;-53
2022/03/17 14:17:37;;;;;;;10.02;9.13;;;;;;;;;;5092280;28;20230;-53
2022/03/17 14:20:04;;;;;;;10.48;9.57;;;;;;;;;;5092102;28;20524;-53
2022/03/17 14:25:17;;;;;;;10.65;9.75;;;;;;;;;;5093519;28;20469;-53
2022/03/17 14:27:44;;;;;;;9.98;9.07;;;;;;;;;;5092829;28;20293;-53
2022/03/17 14:30:12;;;;;;;10.20;9.30;;;;;;;;;;5093725;28;20200;-54
2022/03/17 14:32:41;;;;;;;10.27;9.38;;;;;;;;;;5092971;28;20203;-53
2022/03/17 14:35:08;;;;;;;9.68;8.88;;;;;;;;;;5091021;28;20199;-53
2022/03/17 14:37:40;;;;;;;10.05;9.15;;;;;;;;;;5091577;28;20330;-53
2022/03/17 14:40:08;;;;;;;9.57;8.77;;;;;;;;;;5090197;28;20405;-53
2022/03/17 14:42:36;;;;;;;9.18;8.48;;;;;;;;;;5091549;28;20219;-53
2022/03/17 14:45:03;;;;;;;9.43;8.63;;;;;;;;;;5091993;28;20341;-53
2022/03/17 14:47:31;;;;;;;9.60;8.80;;;;;;;;;;5091986;28;20481;-53
2022/03/17 14:50:00;;;;;;;9.57;8.77;;;;;;;;;;5092418;28;20199;-53
2022/03/17 14:52:28;;;;;;;9.55;8.75;;;;;;;;;;5091473;28;20560;-53
2022/03/17 14:54:56;;;;;;;9.77;8.88;;;;;;;;;;5091541;28;20302;-53
2022/03/17 14:57:24;;;;;;;8.95;8.15;;;;;;;;;;5090136;28;20228;-53
2022/03/17 14:59:52;;;;;;;9.30;8.52;;;;;;;;;;5093340;28;20203;-53
2022/03/17 15:02:20;;;;;;;9.30;8.50;;;;;;;;;;5093310;28;20199;-53
2022/03/17 15:04:47;;;;;;;9.48;8.68;;;;;;;;;;5092342;28;20214;-53
2022/03/17 15:07:16;;;;;;;9.20;8.40;;;;;;;;;;5091754;28;20294;-53
2022/03/17 15:09:43;;;;;;;9.48;8.68;;;;;;;;;;5091656;28;20204;-53
2022/03/17 15:12:12;;;;;;;8.98;8.13;;;;;;;;;;5091892;28;20196;-53
2022/03/17 15:14:39;;;;;;;8.50;7.80;;;;;;;;;;5091065;28;20214;-53